Jump to content


DELTA AIRLINES FLIGHT DL484 FLOWN ON 01-05-2018 BY CAPTAIN JIM BOERMAN

Pilot StatsCaptain Jim Boerman (LDP136) • 4,870.7 total hours • 1,472 total flights [View Logbook]
FLIGHT DETAILS
StatusReceived and approved on 2018-01-05 at 14:01:49
Origin AirportKennedy Intl (KJFK) • New York, New York, United States (13 feet MSL)
Filed Flight PlanKJFK BOUNO L454 GEDIC L455 TAAPS L457 GLINN L459 VOGEL L454 GEENE L455 OWENZ L457 ELCAM L459 WUZYU L454 ANNGO L455 BERGH L457 WEBBB L454 ATUGI M201 PAEPR L453 LAMER L464 RODRK A554 CERDA L453 ASIVO UL793 CDO UA567 NOREX TNCA
Destination AirportOranjestad-Reina Beatrix Intl. (TNCA) • Aruba Island, Aruba (62 feet MSL)
Alternate AirportWillemstad-Hato Intl. (TNCC) • Curacao I, Netherlands Antilles (29 feet MSL)
AirlineDelta Airlines
AircraftBoeing 737-800 | Winglets (73H / B737-800)
FS Aircraft UsedBoeing 737-832NGX Delta Air Lines Winglets
Cruising AltitudeFL350
Distance Flown1,701 nautical miles
Passengers Onboard125 passengers (77.16% full)
DEPARTURE DETAILS
Time Out10:11:00
Taxi Data149,057 lbs total with 29,432 lbs of fuel onboard
Takeoff Data10:26:26 (15 minutes after leaving gate/ramp) • 148,251 lbs total • 9° pitch at 161 knots
Departure METARKJFK 051351Z 30023G33KT 10SM FEW040 M12/M19 A2980 RMK AO2 PK WND 31036/1338 SLP091 PRESENT WX DRSN T11221189
ARRIVAL DETAILS
Landing Data15:48:10 • 125,644 lbs total • 5° pitch doing 116 knots at a rate of -252.98 feet/minute with 5,729 lbs of fuel onboard
Time In15:54:44 (7 minutes after landing)
Ramp Weight125,354 lbs total
Total Fuel Used23,703 lbs
Total Block Time04:43:43 (4.7 hours) while 22 minutes were spent on the ground
Arrival METARTNCA 051900Z 08021KT 9999 FEW022 30/25 Q1012 A2990 NOSIG
MISCELLANEOUS DETAILS
LiveDISPATCH Version4.8.3.1
FS Version
FSUIPC Version5.12
OS VersionWindows 7 32-bit
Screen Resolution1920 x 1080
Pilot's CommentsNo Comments Reported
FLIGHT MAP